Aviation Digital Data Service (ADDS)

Output produced by METARs form (2356 UTC 23 November 2014)
found at http://aviationweather.gov/adds/metars/
 
KAND 232334Z 2400/2424 11008KT 5SM SHRA BR OVC004 WS020/16040KT 
     FM240200 17009KT 3SM SHRA BR OVC007 
     FM240400 19013KT P6SM SHRA OVC004 
     FM240600 20014KT P6SM OVC002 
     FM241400 21011KT P6SM BKN003 
     FM241600 22014G22KT P6SM SCT020